createdAt,value
2023-05-05T00:02:51.161Z,40.80
2023-05-05T00:12:52.591Z,40.85
2023-05-05T00:22:53.962Z,41.64
2023-05-05T00:32:55.295Z,41.28
2023-05-05T00:42:56.625Z,42.03
2023-05-05T00:52:57.886Z,42.63
2023-05-05T01:02:59.257Z,42.33
2023-05-05T01:13:00.657Z,42.88
2023-05-05T01:23:02.895Z,43.39
2023-05-05T01:33:04.183Z,42.72
2023-05-05T01:43:05.438Z,43.20
2023-05-05T01:53:06.713Z,44.24
2023-05-05T02:03:08.204Z,43.96
2023-05-05T02:13:09.724Z,43.24
2023-05-05T02:23:11.048Z,43.72
2023-05-05T02:33:12.282Z,44.20
2023-05-05T02:43:13.614Z,44.53
2023-05-05T02:53:14.917Z,43.93
2023-05-05T03:03:16.373Z,44.06
2023-05-05T03:13:17.733Z,43.76
2023-05-05T03:23:19.005Z,44.03
2023-05-05T03:33:20.296Z,43.70
2023-05-05T03:43:21.533Z,44.42
2023-05-05T03:53:22.816Z,44.07
2023-05-05T04:03:24.260Z,43.72
2023-05-05T04:13:25.672Z,43.60
2023-05-05T04:23:26.938Z,43.99
2023-05-05T04:33:28.164Z,43.66
2023-05-05T04:43:29.392Z,43.97
2023-05-05T04:53:30.661Z,44.56
2023-05-05T05:03:32.032Z,44.12
2023-05-05T05:13:33.461Z,43.36
2023-05-05T05:23:34.769Z,43.71
2023-05-05T05:33:36.043Z,43.48
2023-05-05T05:43:37.282Z,44.72
2023-05-05T05:53:38.561Z,44.06
2023-05-05T06:03:39.925Z,43.71
2023-05-05T06:13:41.241Z,45.02
2023-05-05T06:23:42.485Z,47.50
2023-05-05T06:33:43.768Z,48.19
2023-05-05T06:43:45.026Z,46.14
2023-05-05T06:53:46.317Z,48.84
2023-05-05T07:03:47.628Z,49.17
2023-05-05T07:13:48.926Z,49.44
2023-05-05T07:23:50.206Z,47.91
2023-05-05T07:33:51.458Z,49.29
2023-05-05T07:43:52.754Z,49.65
2023-05-05T07:53:54.006Z,48.29
2023-05-05T08:03:55.371Z,50.15
2023-05-05T08:13:56.628Z,49.01
2023-05-05T08:23:57.887Z,49.47
2023-05-05T08:33:59.163Z,49.57
2023-05-05T08:44:00.399Z,50.00
2023-05-05T08:54:01.646Z,48.12
2023-05-05T09:04:02.916Z,48.36
2023-05-05T09:14:04.194Z,48.30
2023-05-05T09:24:08.631Z,47.42
2023-05-05T09:34:10.343Z,46.76
2023-05-05T09:44:11.584Z,47.12
2023-05-05T09:54:12.890Z,47.28
2023-05-05T10:04:14.155Z,47.56
2023-05-05T10:14:15.420Z,47.38
2023-05-05T10:24:16.699Z,47.00
2023-05-05T10:34:18.166Z,46.95
2023-05-05T10:44:19.493Z,47.35
2023-05-05T10:54:20.788Z,48.86
2023-05-05T11:04:22.079Z,49.14
2023-05-05T11:14:23.740Z,49.84
2023-05-05T11:24:25.046Z,49.66
2023-05-05T11:34:26.273Z,50.05
2023-05-05T11:44:27.493Z,50.63
2023-05-05T11:54:28.758Z,49.74
2023-05-05T12:04:30.035Z,50.28
2023-05-05T12:14:31.308Z,52.21
2023-05-05T12:24:32.913Z,52.26
2023-05-05T12:34:34.295Z,50.44
2023-05-05T12:44:43.114Z,51.18
2023-05-05T12:54:52.372Z,50.96
2023-05-05T13:05:01.065Z,50.75
2023-05-05T13:15:06.630Z,51.62
2023-05-05T13:25:18.084Z,50.20
2023-05-05T13:35:24.237Z,50.49
2023-05-05T13:45:25.865Z,50.98
2023-05-05T13:55:40.796Z,50.34
2023-05-05T14:05:50.207Z,50.52
2023-05-05T14:15:57.853Z,52.54
2023-05-05T14:26:05.069Z,51.04
2023-05-05T14:36:13.656Z,51.48
2023-05-05T14:46:21.898Z,51.75
2023-05-05T14:56:29.830Z,52.38
2023-05-05T15:06:38.839Z,50.75
2023-05-05T15:16:46.898Z,51.76
2023-05-05T15:26:54.922Z,51.73
2023-05-05T15:37:03.903Z,51.60
2023-05-05T15:47:11.907Z,51.18
2023-05-05T15:57:19.874Z,51.77
2023-05-05T16:07:28.300Z,51.08
2023-05-05T16:17:36.874Z,51.88
2023-05-05T16:27:44.928Z,50.52
2023-05-05T16:37:52.890Z,50.17
2023-05-05T16:48:00.887Z,50.88
2023-05-05T16:58:09.835Z,51.20
2023-05-05T17:08:17.820Z,50.85
2023-05-05T17:18:25.909Z,50.67
2023-05-05T17:28:33.922Z,50.82
2023-05-05T17:38:44.276Z,49.89
2023-05-05T17:48:51.912Z,50.76
2023-05-05T17:59:02.606Z,49.94
2023-05-05T18:09:10.881Z,49.42
2023-05-05T18:19:15.916Z,49.54
2023-05-05T18:29:23.903Z,50.10
2023-05-05T18:39:31.899Z,50.03
2023-05-05T18:49:42.645Z,49.50
2023-05-05T18:59:50.917Z,49.77
2023-05-05T19:09:52.219Z,49.35
2023-05-05T19:19:53.777Z,49.15
2023-05-05T19:29:55.070Z,48.70
2023-05-05T19:39:56.308Z,48.90
2023-05-05T19:49:57.577Z,48.58
2023-05-05T19:59:58.941Z,48.67
2023-05-05T20:10:00.249Z,48.63
2023-05-05T20:20:01.502Z,48.50
2023-05-05T20:30:02.786Z,48.46
2023-05-05T20:40:04.121Z,48.09
2023-05-05T20:50:05.364Z,48.22
2023-05-05T21:00:06.671Z,48.14
2023-05-05T21:10:08.294Z,48.34
2023-05-05T21:20:10.017Z,48.08
2023-05-05T21:30:11.530Z,47.99
2023-05-05T21:40:13.062Z,48.43
2023-05-05T21:50:14.424Z,48.46
2023-05-05T22:00:15.680Z,47.87
2023-05-05T22:10:16.961Z,48.15
2023-05-05T22:20:18.342Z,48.36
2023-05-05T22:30:19.597Z,48.42
2023-05-05T22:40:20.835Z,48.50
2023-05-05T22:50:22.109Z,48.38
2023-05-05T23:00:23.377Z,47.94
2023-05-05T23:10:24.673Z,48.32
2023-05-05T23:20:25.984Z,48.08
2023-05-05T23:30:27.285Z,47.72
2023-05-05T23:40:28.539Z,48.25
2023-05-05T23:50:29.773Z,47.65
